createdAt,value
2023-02-08T00:01:00.816Z,-6069.16
2023-02-08T00:02:04.043Z,-5753.22
2023-02-08T00:03:07.774Z,-5436.81
2023-02-08T00:04:10.765Z,-5121.38
2023-02-08T00:05:13.772Z,-5436.03
2023-02-08T00:06:17.410Z,-5751.06
2023-02-08T00:07:19.891Z,-5750.53
2023-02-08T00:08:22.414Z,-6065.66
2023-02-08T00:09:25.177Z,-6696.03
2023-02-08T00:10:28.420Z,-7011.88
2023-02-08T00:11:31.063Z,-7011.63
2023-02-08T00:12:34.542Z,-7326.59
2023-02-08T00:13:39.777Z,-7010.84
2023-02-08T00:14:43.785Z,-6380.13
2023-02-08T00:15:46.963Z,-6379.31
2023-02-08T00:16:49.671Z,-6063.84
2023-02-08T00:17:52.481Z,-5748.78
2023-02-08T00:18:56.344Z,-5748.22
2023-02-08T00:19:59.154Z,-5747.75
2023-02-08T00:21:01.839Z,-5747.22
2023-02-08T00:22:04.318Z,-5747.50
2023-02-08T00:23:07.253Z,-6379.03
2023-02-08T00:24:10.014Z,-7009.69
2023-02-08T00:25:12.535Z,-7957.09
2023-02-08T00:26:16.251Z,-8904.38
2023-02-08T00:27:19.245Z,-9851.06
2023-02-08T00:28:22.126Z,-10483.53
2023-02-08T00:29:24.645Z,-11114.50
2023-02-08T00:30:27.167Z,-10799.16
2023-02-08T00:31:29.759Z,-10168.09
2023-02-08T00:32:32.458Z,-9852.06
2023-02-08T00:33:35.062Z,-9536.47
2023-02-08T00:34:38.812Z,-9851.97
2023-02-08T00:35:42.433Z,-9221.06
2023-02-08T00:36:44.930Z,-8589.59
2023-02-08T00:37:48.047Z,-8589.22
2023-02-08T00:38:50.665Z,-7958.38
2023-02-08T00:39:53.206Z,-7642.53
2023-02-08T00:40:55.846Z,-7642.06
2023-02-08T00:42:00.049Z,-7641.22
2023-02-08T00:43:03.049Z,-7956.31
2023-02-08T00:44:05.691Z,-7956.84
2023-02-08T00:45:08.791Z,-8271.94
2023-02-08T00:46:11.692Z,-8271.75
2023-02-08T00:47:14.450Z,-8271.75
2023-02-08T00:48:16.973Z,-8270.88
2023-02-08T00:49:19.611Z,-7955.19
2023-02-08T00:50:22.261Z,-7323.69
2023-02-08T00:51:25.018Z,-7008.34
2023-02-08T00:52:28.616Z,-7322.34
2023-02-08T00:53:31.856Z,-7006.81
2023-02-08T00:54:34.381Z,-6691.38
2023-02-08T00:55:36.898Z,-6690.84
2023-02-08T00:56:40.034Z,-6690.09
2023-02-08T00:57:42.661Z,-6374.66
2023-02-08T00:58:47.710Z,-6689.41
2023-02-08T00:59:51.029Z,-6688.81
2023-02-08T01:00:54.472Z,-6688.28
2023-02-08T01:01:57.976Z,-6688.91
2023-02-08T01:03:02.409Z,-7004.06
2023-02-08T01:04:05.715Z,-7635.72
2023-02-08T01:05:08.464Z,-7950.81
2023-02-08T01:06:14.350Z,-8265.94
2023-02-08T01:07:17.227Z,-7950.31
2023-02-08T01:08:21.214Z,-7634.50
2023-02-08T01:09:24.912Z,-7319.09
2023-02-08T01:10:27.556Z,-7003.75
2023-02-08T01:11:30.192Z,-6688.75
2023-02-08T01:12:32.959Z,-6373.22
2023-02-08T01:13:37.040Z,-6372.94
2023-02-08T01:14:40.427Z,-6373.38
2023-02-08T01:15:43.886Z,-7003.53
2023-02-08T01:16:46.646Z,-7634.06
2023-02-08T01:17:57.088Z,-8264.53
2023-02-08T01:19:01.535Z,-8264.69
2023-02-08T01:20:04.286Z,-8264.53
2023-02-08T01:21:12.327Z,-8579.50
2023-02-08T01:22:14.872Z,-8263.63
2023-02-08T01:23:17.614Z,-8263.28
2023-02-08T01:24:20.283Z,-7633.25
2023-02-08T01:25:23.149Z,-7317.59
2023-02-08T01:26:26.384Z,-7001.81
2023-02-08T01:27:29.140Z,-6371.75
2023-02-08T01:28:32.380Z,-6056.41
2023-02-08T01:29:35.507Z,-5741.22
2023-02-08T01:30:38.990Z,-5740.88
2023-02-08T01:31:44.063Z,-5740.41
2023-02-08T01:32:47.147Z,-5426.06
2023-02-08T01:33:50.634Z,-5426.00
2023-02-08T01:34:53.751Z,-5111.34
2023-02-08T01:35:56.874Z,-5425.91
2023-02-08T01:37:00.010Z,-5426.00
2023-02-08T01:38:03.113Z,-5111.28
2023-02-08T01:39:08.761Z,-5111.09
2023-02-08T01:40:12.240Z,-5111.03
2023-02-08T01:41:19.439Z,-5111.34
2023-02-08T01:42:22.684Z,-4796.41
2023-02-08T01:43:32.651Z,-5111.53
2023-02-08T01:45:30.300Z,-5111.03
2023-02-08T01:46:36.141Z,-4480.72
2023-02-08T01:47:40.574Z,-3851.16
2023-02-08T01:48:43.696Z,-3536.41
2023-02-08T01:49:46.815Z,-3536.13
2023-02-08T01:51:00.616Z,-3221.31
2023-02-08T01:52:20.094Z,-3221.59
2023-02-08T01:53:26.300Z,-3221.50
2023-02-08T01:54:33.741Z,-3221.41
2023-02-08T01:55:43.589Z,-2906.72
2023-02-08T01:56:48.386Z,-2906.59
2023-02-08T01:57:55.354Z,-2591.91
2023-02-08T01:59:02.430Z,-2591.88
2023-02-08T02:00:12.875Z,-2591.91
2023-02-08T02:01:19.142Z,-1962.38
2023-02-08T02:02:24.046Z,-1962.38
2023-02-08T02:03:27.998Z,-1647.50
2023-02-08T02:04:31.359Z,-1332.66
2023-02-08T02:05:41.800Z,-1332.66
2023-02-08T02:06:49.844Z,-1332.66
2023-02-08T02:07:55.723Z,-1017.97
2023-02-08T02:09:10.366Z,-1332.72
2023-02-08T02:10:27.288Z,-1332.97
2023-02-08T02:11:29.933Z,-703.19
2023-02-08T02:12:34.249Z,-703.19
2023-02-08T02:13:38.098Z,-388.41
2023-02-08T02:14:41.935Z,-73.50
2023-02-08T02:15:45.907Z,241.16
2023-02-08T02:16:48.852Z,-73.66
2023-02-08T02:17:51.590Z,-388.63
2023-02-08T02:18:54.433Z,-1018.03
2023-02-08T02:20:05.948Z,-1018.19
2023-02-08T02:21:21.671Z,-1647.66
2023-02-08T02:23:05.586Z,-1018.03
2023-02-08T02:24:23.277Z,-1017.97
2023-02-08T02:26:23.761Z,-388.31
2023-02-08T02:27:51.821Z,-388.22
2023-02-08T02:29:00.239Z,241.22
2023-02-08T02:30:24.221Z,241.16
2023-02-08T02:31:48.145Z,241.22
2023-02-08T02:33:16.087Z,555.94
2023-02-08T02:35:02.994Z,870.72
2023-02-08T02:36:35.650Z,1185.50
2023-02-08T02:38:06.002Z,870.75
2023-02-08T02:39:35.651Z,1185.50
2023-02-08T02:40:58.086Z,1185.47
2023-02-08T02:42:31.573Z,1185.50
2023-02-08T02:43:52.206Z,1185.47
2023-02-08T02:45:37.236Z,1185.50
2023-02-08T02:46:43.571Z,1500.25
2023-02-08T02:47:56.187Z,1500.25
2023-02-08T02:49:06.375Z,1500.25
2023-02-08T02:50:40.975Z,1500.22
2023-02-08T02:51:54.504Z,1815.00
2023-02-08T02:53:11.914Z,1500.25
2023-02-08T02:54:17.782Z,1815.00
2023-02-08T02:55:23.902Z,1815.00
2023-02-08T02:56:47.899Z,1815.00
2023-02-08T02:57:53.809Z,1815.00
2023-02-08T02:59:02.550Z,1815.00
2023-02-08T03:00:11.185Z,1500.28
2023-02-08T03:01:14.097Z,1814.97
2023-02-08T03:02:16.831Z,1815.00
2023-02-08T03:03:22.953Z,1500.31
2023-02-08T03:04:34.325Z,870.75
2023-02-08T03:05:36.994Z,870.75
2023-02-08T03:07:09.874Z,-703.16
2023-02-08T03:08:26.083Z,-1647.88
2023-02-08T03:09:36.277Z,-3222.63
2023-02-08T03:10:42.081Z,-4167.84
2023-02-08T03:12:14.925Z,-4797.41
2023-02-08T03:13:46.244Z,-5427.34
2023-02-08T03:15:30.408Z,-6372.63
2023-02-08T03:16:58.291Z,-6687.47
2023-02-08T03:18:00.653Z,-6686.56
2023-02-08T03:19:27.648Z,-6686.47
2023-02-08T03:20:34.252Z,-6371.19
2023-02-08T03:21:58.746Z,-6686.47
2023-02-08T03:23:24.301Z,-6371.75
2023-02-08T03:24:40.501Z,-6056.69
2023-02-08T03:26:11.270Z,-6056.41
2023-02-08T03:27:18.661Z,-6056.75
2023-02-08T03:28:56.960Z,-6372.19
2023-02-08T03:30:34.318Z,-6687.09
2023-02-08T03:31:51.096Z,-7002.97
2023-02-08T03:33:33.208Z,-6372.94
2023-02-08T03:34:52.035Z,-5742.44
2023-02-08T03:36:13.637Z,-5111.97
2023-02-08T03:37:24.203Z,-4797.13
2023-02-08T03:38:38.137Z,-4796.66
2023-02-08T03:39:43.593Z,-3852.19
2023-02-08T03:40:50.248Z,-3536.91
2023-02-08T03:42:00.327Z,-3536.31
2023-02-08T03:43:11.850Z,-3535.94
2023-02-08T03:44:24.215Z,-4165.06
2023-02-08T03:45:39.100Z,-4479.94
2023-02-08T03:46:47.975Z,-4794.63
2023-02-08T03:47:54.337Z,-5425.16
2023-02-08T03:49:04.423Z,-6370.25
2023-02-08T03:50:11.863Z,-6685.34
2023-02-08T03:51:17.386Z,-6370.53
2023-02-08T03:52:23.142Z,-6685.34
2023-02-08T03:53:28.185Z,-6685.50
2023-02-08T03:54:36.108Z,-6685.44
2023-02-08T03:55:41.267Z,-6685.66
2023-02-08T03:56:52.912Z,-6685.97
2023-02-08T03:58:08.992Z,-7315.31
2023-02-08T03:59:19.434Z,-7316.06
2023-02-08T04:00:23.874Z,-6686.41
2023-02-08T04:01:32.703Z,-6686.19
2023-02-08T04:02:41.575Z,-7630.25
2023-02-08T04:03:50.518Z,-7315.66
2023-02-08T04:04:54.602Z,-6370.75
2023-02-08T04:05:57.844Z,-5425.78
2023-02-08T04:07:01.564Z,-5110.41
2023-02-08T04:08:04.689Z,-4480.28
2023-02-08T04:09:08.048Z,-4164.78
2023-02-08T04:10:11.292Z,-3849.72
2023-02-08T04:11:14.893Z,-3849.03
2023-02-08T04:12:18.256Z,-4163.28
2023-02-08T04:13:21.253Z,-4162.94
2023-02-08T04:14:24.018Z,-4162.50
2023-02-08T04:15:27.742Z,-3847.72
2023-02-08T04:16:30.504Z,-4476.50
2023-02-08T04:17:33.147Z,-4791.16
2023-02-08T04:18:35.904Z,-5421.06
2023-02-08T04:19:39.025Z,-6050.38
2023-02-08T04:20:42.023Z,-6365.88
2023-02-08T04:21:44.682Z,-6995.66
2023-02-08T04:22:47.428Z,-7311.13
2023-02-08T04:23:50.087Z,-7941.56
2023-02-08T04:24:52.646Z,-8256.56
2023-02-08T04:25:55.280Z,-8257.09
2023-02-08T04:26:57.888Z,-8257.09
2023-02-08T04:28:00.629Z,-8572.75
2023-02-08T04:29:03.416Z,-8573.69
2023-02-08T04:30:06.207Z,-8574.31
2023-02-08T04:31:08.952Z,-8890.91
2023-02-08T04:32:12.053Z,-8891.66
2023-02-08T04:33:15.168Z,-8891.66
2023-02-08T04:34:17.864Z,-8261.69
2023-02-08T04:35:20.572Z,-7946.88
2023-02-08T04:36:23.253Z,-8577.94
2023-02-08T04:37:26.013Z,-7947.81
2023-02-08T04:38:28.547Z,-7948.09
2023-02-08T04:39:31.054Z,-7948.00
2023-02-08T04:40:33.575Z,-7948.16
2023-02-08T04:41:36.228Z,-7948.25
2023-02-08T04:42:38.825Z,-7632.91
2023-02-08T04:43:41.347Z,-7003.22
2023-02-08T04:44:43.779Z,-7633.00
2023-02-08T04:45:46.298Z,-8578.50
2023-02-08T04:46:48.939Z,-8264.59
2023-02-08T04:47:51.467Z,-8580.13
2023-02-08T04:48:53.980Z,-9211.75
2023-02-08T04:49:56.623Z,-8896.63
2023-02-08T04:50:59.501Z,-8896.53
2023-02-08T04:52:02.021Z,-8580.84
2023-02-08T04:53:04.545Z,-8265.41
2023-02-08T04:54:07.304Z,-7950.16
2023-02-08T04:55:09.832Z,-7949.81
2023-02-08T04:56:12.347Z,-7633.81
2023-02-08T04:57:15.113Z,-7002.91
2023-02-08T04:58:18.227Z,-7317.41
2023-02-08T04:59:20.872Z,-6686.56
2023-02-08T05:00:23.633Z,-6685.34
2023-02-08T05:01:26.313Z,-6369.44
2023-02-08T05:02:28.792Z,-6053.59
2023-02-08T05:03:31.312Z,-6682.94
2023-02-08T05:04:34.073Z,-7312.34
2023-02-08T05:05:36.710Z,-7942.34
2023-02-08T05:06:39.230Z,-9518.41
2023-02-08T05:07:41.753Z,-9518.28
2023-02-08T05:08:44.392Z,-9833.81
2023-02-08T05:09:46.920Z,-9518.69
2023-02-08T05:10:49.324Z,-9203.19
2023-02-08T05:11:51.956Z,-10779.84
2023-02-08T05:12:54.473Z,-10781.06
2023-02-08T05:13:56.997Z,-10465.41
2023-02-08T05:14:59.529Z,-10149.19
2023-02-08T05:16:02.152Z,-10148.66
2023-02-08T05:17:04.807Z,-10465.31
2023-02-08T05:18:07.327Z,-10780.84
2023-02-08T05:19:11.520Z,-11411.09
2023-02-08T05:20:14.288Z,-11097.06
2023-02-08T05:21:16.812Z,-11097.28
2023-02-08T05:22:19.343Z,-11096.97
2023-02-08T05:23:21.849Z,-11097.84
2023-02-08T05:24:24.613Z,-11728.91
2023-02-08T05:25:27.255Z,-11414.97
2023-02-08T05:26:29.894Z,-11413.81
2023-02-08T05:27:34.335Z,-12043.53
2023-02-08T05:28:37.939Z,-11413.59
2023-02-08T05:29:40.698Z,-12044.94
2023-02-08T05:30:43.421Z,-12044.84
2023-02-08T05:31:46.309Z,-12045.44
2023-02-08T05:32:49.224Z,-12045.91
2023-02-08T05:33:52.946Z,-12361.03
2023-02-08T05:34:55.827Z,-12045.91
2023-02-08T05:35:58.468Z,-11729.72
2023-02-08T05:37:01.349Z,-11413.38
2023-02-08T05:38:04.118Z,-11728.56
2023-02-08T05:39:07.250Z,-11728.22
2023-02-08T05:40:11.326Z,-12042.81
2023-02-08T05:41:14.332Z,-11412.00
2023-02-08T05:42:17.438Z,-11412.00
2023-02-08T05:43:20.677Z,-12043.28
2023-02-08T05:44:23.809Z,-11727.38
2023-02-08T05:45:26.925Z,-12043.03
2023-02-08T05:46:30.199Z,-12042.56
2023-02-08T05:47:33.285Z,-12041.38
2023-02-08T05:48:36.526Z,-12041.72
2023-02-08T05:49:39.648Z,-11725.16
2023-02-08T05:50:43.369Z,-11408.91
2023-02-08T05:51:46.609Z,-11094.06
2023-02-08T05:52:49.731Z,-10778.31
2023-02-08T05:53:52.981Z,-11410.06
2023-02-08T05:54:56.096Z,-11410.16
2023-02-08T05:55:59.459Z,-11725.88
2023-02-08T05:57:02.817Z,-12356.16
2023-02-08T05:58:05.941Z,-12356.91
2023-02-08T05:59:10.629Z,-12673.94
2023-02-08T06:00:14.225Z,-12672.94
2023-02-08T06:01:20.349Z,-12357.25
2023-02-08T06:02:24.066Z,-12356.03
2023-02-08T06:03:27.786Z,-12356.16
2023-02-08T06:04:30.910Z,-11724.69
2023-02-08T06:05:34.868Z,-11093.38
2023-02-08T06:06:38.234Z,-10461.78
2023-02-08T06:07:41.354Z,-9516.31
2023-02-08T06:08:44.603Z,-8885.78
2023-02-08T06:09:48.657Z,-8254.97
2023-02-08T06:10:51.798Z,-7625.09
2023-02-08T06:11:55.040Z,-6994.97
2023-02-08T06:12:58.281Z,-6679.78
2023-02-08T06:14:01.284Z,-6050.22
2023-02-08T06:15:04.644Z,-5735.13
2023-02-08T06:16:08.312Z,-5420.34
2023-02-08T06:17:11.133Z,-4791.16
2023-02-08T06:18:13.772Z,-4476.22
2023-02-08T06:19:16.773Z,-3847.06
2023-02-08T06:20:19.780Z,-3532.38
2023-02-08T06:21:24.378Z,-3217.84
2023-02-08T06:22:27.342Z,-2903.28
2023-02-08T06:23:34.068Z,-2588.72
2023-02-08T06:24:36.582Z,-1959.72
2023-02-08T06:25:39.344Z,-1645.03
2023-02-08T06:26:41.916Z,-1330.53
2023-02-08T06:27:44.625Z,-1015.94
2023-02-08T06:28:47.314Z,-701.47
2023-02-08T06:29:49.915Z,-701.38
2023-02-08T06:30:52.958Z,-386.81
2023-02-08T06:31:55.583Z,-72.22
2023-02-08T06:32:58.195Z,556.97
2023-02-08T06:34:00.767Z,871.59
2023-02-08T06:35:03.727Z,1500.69
2023-02-08T06:36:06.767Z,1500.63
2023-02-08T06:37:09.282Z,1500.59
2023-02-08T06:38:11.932Z,1185.91
2023-02-08T06:39:14.449Z,1185.97
2023-02-08T06:40:17.208Z,1185.94
2023-02-08T06:41:19.858Z,1185.91
2023-02-08T06:42:22.485Z,1500.53
2023-02-08T06:43:25.094Z,1185.91
2023-02-08T06:44:27.756Z,1185.88
2023-02-08T06:45:30.436Z,1500.53
2023-02-08T06:46:32.927Z,1815.16
2023-02-08T06:47:35.571Z,1815.16
2023-02-08T06:48:38.616Z,1500.50
2023-02-08T06:49:41.811Z,1500.47
2023-02-08T06:50:44.631Z,1500.50
2023-02-08T06:51:47.212Z,1815.16
2023-02-08T06:52:49.827Z,1815.19
2023-02-08T06:53:52.497Z,1815.19
2023-02-08T06:54:54.902Z,2129.78
2023-02-08T06:55:57.552Z,2129.78
2023-02-08T06:57:00.054Z,2129.78
2023-02-08T06:58:02.588Z,1815.16
2023-02-08T06:59:05.103Z,1815.16
2023-02-08T07:00:08.366Z,1500.53
2023-02-08T07:01:14.977Z,1185.81
2023-02-08T07:02:20.155Z,1500.50
2023-02-08T07:03:22.738Z,1815.13
2023-02-08T07:04:25.515Z,1815.13
2023-02-08T07:05:28.279Z,1815.13
2023-02-08T07:06:30.901Z,1185.81
2023-02-08T07:07:33.551Z,556.44
2023-02-08T07:08:36.064Z,-73.09
2023-02-08T07:09:38.831Z,-1017.53
2023-02-08T07:10:41.616Z,-1961.91
2023-02-08T07:11:44.354Z,-2906.75
2023-02-08T07:12:46.999Z,-3852.25
2023-02-08T07:13:51.668Z,-5113.03
2023-02-08T07:14:54.194Z,-6059.22
2023-02-08T07:15:56.713Z,-7006.19
2023-02-08T07:16:59.514Z,-7953.75
2023-02-08T07:18:02.231Z,-8901.94
2023-02-08T07:19:04.755Z,-10167.69
2023-02-08T07:20:08.476Z,-11433.38
2023-02-08T07:21:11.981Z,-12068.38
2023-02-08T07:22:14.481Z,-12703.50
2023-02-08T07:23:17.010Z,-13024.44
2023-02-08T07:24:19.777Z,-13977.88
2023-02-08T07:25:22.766Z,-14932.63
2023-02-08T07:26:25.652Z,-15887.41
2023-02-08T07:27:28.295Z,-16527.81
2023-02-08T07:28:31.648Z,-17484.31
2023-02-08T07:29:34.773Z,-18757.84
2023-02-08T07:30:37.430Z,-19083.81
2023-02-08T07:31:39.940Z,-19410.47
2023-02-08T07:32:42.456Z,-20056.84
2023-02-08T07:33:45.465Z,-20068.66
2023-02-08T07:34:47.977Z,-20079.00
2023-02-08T07:35:50.861Z,-20092.66
2023-02-08T07:36:53.504Z,-19454.38
2023-02-08T07:37:56.273Z,-20102.44
2023-02-08T07:38:59.028Z,-20112.03
2023-02-08T07:40:01.788Z,-20114.81
2023-02-08T07:41:07.811Z,-20119.97
2023-02-08T07:42:11.031Z,-20130.84
2023-02-08T07:43:27.284Z,-20130.13
2023-02-08T07:44:35.035Z,-19178.72
2023-02-08T07:45:39.016Z,-16328.59
2023-02-08T07:46:42.606Z,-13790.31
2023-02-08T07:47:46.923Z,-5521.31
2023-02-08T07:48:50.524Z,3083.63
2023-02-08T07:49:53.651Z,8833.44
2023-02-08T07:50:56.776Z,23241.47
2023-02-08T07:52:01.451Z,33860.31
2023-02-08T07:53:04.575Z,52583.00
2023-02-08T07:54:07.937Z,66856.66
2023-02-08T07:55:12.144Z,66889.91
2023-02-08T07:56:15.256Z,73761.91
2023-02-08T07:57:21.622Z,110750.28
2023-02-08T07:58:25.229Z,128580.56
2023-02-08T07:59:28.345Z,146129.78
2023-02-08T08:00:31.710Z,133940.38
2023-02-08T08:01:34.840Z,115838.97
2023-02-08T08:02:38.198Z,99768.50
2023-02-08T08:03:41.342Z,92251.50
2023-02-08T08:04:44.794Z,98176.28
2023-02-08T08:05:48.917Z,64855.69
2023-02-08T08:06:54.155Z,80856.06
2023-02-08T08:07:57.277Z,69128.38
2023-02-08T08:09:00.530Z,66207.28
2023-02-08T08:10:04.727Z,64271.59
2023-02-08T08:11:08.325Z,52896.19
2023-02-08T08:12:11.565Z,99369.81
2023-02-08T08:13:15.169Z,146636.28
2023-02-08T08:14:18.291Z,146647.13
2023-02-08T08:15:21.775Z,146682.13
2023-02-08T08:16:25.262Z,146651.97
2023-02-08T08:17:30.002Z,146662.84
2023-02-08T08:18:33.537Z,146703.88
2023-02-08T08:19:36.907Z,146755.81
2023-02-08T08:20:40.375Z,146761.81
2023-02-08T08:21:43.517Z,146747.31
2023-02-08T08:22:46.272Z,146760.63
2023-02-08T08:23:49.267Z,146699.06
2023-02-08T08:24:52.147Z,146696.66
2023-02-08T08:25:55.150Z,146665.25
2023-02-08T08:26:58.271Z,146735.25
2023-02-08T08:28:02.405Z,146759.41
2023-02-08T08:29:06.835Z,146763.03
2023-02-08T08:30:12.729Z,146795.63
2023-02-08T08:31:21.390Z,146800.44
2023-02-08T08:32:23.957Z,146817.34
2023-02-08T08:33:26.598Z,146862.03
2023-02-08T08:34:32.169Z,146918.81
2023-02-08T08:35:35.245Z,146923.63
2023-02-08T08:36:37.930Z,146922.44
2023-02-08T08:37:40.540Z,146956.25
2023-02-08T08:38:43.217Z,147032.34
2023-02-08T08:39:45.818Z,147029.94
2023-02-08T08:40:48.371Z,147039.56
2023-02-08T08:41:51.015Z,147107.28
2023-02-08T08:42:53.533Z,147029.94
2023-02-08T08:43:56.293Z,147020.28
2023-02-08T08:44:58.900Z,147006.97
2023-02-08T08:46:01.867Z,147046.88
2023-02-08T08:47:04.462Z,147119.41
2023-02-08T08:48:07.306Z,147233.00
2023-02-08T08:49:09.979Z,147162.91
2023-02-08T08:50:12.588Z,147295.88
2023-02-08T08:51:15.379Z,147443.44
2023-02-08T08:52:17.900Z,147552.38
2023-02-08T08:53:22.197Z,147484.56
2023-02-08T08:54:24.832Z,147218.50
2023-02-08T08:55:28.472Z,147353.94
2023-02-08T08:56:32.310Z,147430.09
2023-02-08T08:57:35.064Z,147448.28
2023-02-08T08:58:37.708Z,147589.88
2023-02-08T08:59:40.322Z,147726.63
2023-02-08T09:00:43.181Z,147809.00
2023-02-08T09:01:45.877Z,147767.84
2023-02-08T09:02:48.649Z,147748.44
2023-02-08T09:03:51.269Z,147901.03
2023-02-08T09:04:53.912Z,147875.59
2023-02-08T09:05:56.794Z,147895.00
2023-02-08T09:06:59.425Z,147966.50
2023-02-08T09:08:03.631Z,147937.44
2023-02-08T09:09:06.514Z,147932.59
2023-02-08T09:10:09.398Z,148025.88
2023-02-08T09:11:15.399Z,147813.81
2023-02-08T09:12:17.909Z,147909.50
2023-02-08T09:13:21.918Z,147954.34
2023-02-08T09:14:24.544Z,148040.41
2023-02-08T09:15:27.044Z,148155.56
2023-02-08T09:16:29.700Z,148128.88
2023-02-08T09:17:32.237Z,148176.13
2023-02-08T09:18:34.956Z,148328.97
2023-02-08T09:19:37.712Z,148308.31
2023-02-08T09:20:40.980Z,148301.06
2023-02-08T09:21:45.670Z,148407.78
2023-02-08T09:22:48.403Z,148547.31
2023-02-08T09:23:51.049Z,148572.81
2023-02-08T09:24:54.170Z,148354.44
2023-02-08T09:25:56.559Z,148389.59
2023-02-08T09:26:59.440Z,148248.84
2023-02-08T09:28:02.205Z,148212.50
2023-02-08T09:29:06.766Z,148150.66
2023-02-08T09:30:09.888Z,148305.91
2023-02-08T09:31:19.690Z,148487.88
2023-02-08T09:32:23.223Z,148560.69
2023-02-08T09:33:25.852Z,148589.84
2023-02-08T09:34:28.613Z,148616.53
2023-02-08T09:35:31.149Z,148642.00
2023-02-08T09:36:36.315Z,148663.84
2023-02-08T09:37:38.948Z,148713.66
2023-02-08T09:38:42.422Z,148640.78
2023-02-08T09:39:45.786Z,148599.53
2023-02-08T09:41:03.672Z,148570.41
2023-02-08T09:42:21.070Z,148429.63
2023-02-08T09:44:01.646Z,148405.34
2023-02-08T09:45:37.741Z,148347.13
2023-02-08T09:46:45.724Z,148288.94
2023-02-08T09:48:00.562Z,148301.06
2023-02-08T09:49:08.605Z,148335.00
2023-02-08T09:50:19.047Z,148487.88
2023-02-08T09:51:29.364Z,148424.78
2023-02-08T09:53:12.809Z,148490.28
2023-02-08T09:54:29.132Z,148458.75
2023-02-08T09:55:46.538Z,148479.34
2023-02-08T09:56:50.617Z,148422.34
2023-02-08T09:57:55.419Z,148342.28
2023-02-08T09:59:01.192Z,148463.59
2023-02-08T10:00:19.494Z,148635.94
2023-02-08T10:01:27.102Z,148543.66
2023-02-08T10:02:32.986Z,148645.66
2023-02-08T10:03:42.827Z,148473.28
2023-02-08T10:05:05.869Z,148646.88
2023-02-08T10:06:13.318Z,148816.84
2023-02-08T10:07:16.916Z,148927.38
2023-02-08T10:08:20.273Z,149031.84
2023-02-08T10:09:27.479Z,149172.88
2023-02-08T10:10:43.029Z,149227.56
2023-02-08T10:12:22.078Z,149408.78
2023-02-08T10:14:20.531Z,149508.53
2023-02-08T10:15:32.645Z,149399.09
2023-02-08T10:16:48.132Z,149355.28
2023-02-08T10:18:04.260Z,149031.84
2023-02-08T10:19:22.692Z,149037.97
2023-02-08T10:20:29.655Z,149163.13
2023-02-08T10:21:50.298Z,149209.34
2023-02-08T10:23:19.447Z,149279.84
2023-02-08T10:25:11.181Z,149344.34
2023-02-08T10:26:45.024Z,149311.47
2023-02-08T10:28:24.311Z,149428.22
2023-02-08T10:29:58.588Z,149703.25
2023-02-08T10:31:39.185Z,149472.03
2023-02-08T10:32:59.845Z,149736.13
2023-02-08T10:34:19.479Z,149803.13
2023-02-08T10:35:41.850Z,149844.50
2023-02-08T10:36:44.802Z,149934.63
2023-02-08T10:37:47.608Z,149783.63
2023-02-08T10:38:53.862Z,149895.66
2023-02-08T10:40:03.285Z,149879.81
2023-02-08T10:41:07.896Z,149829.91
2023-02-08T10:42:16.967Z,149946.78
2023-02-08T10:43:35.572Z,149993.13
2023-02-08T10:45:01.131Z,150061.34
2023-02-08T10:46:24.931Z,150138.06
2023-02-08T10:47:43.504Z,149900.53
2023-02-08T10:49:19.305Z,150073.50
2023-02-08T10:50:33.576Z,149861.56
2023-02-08T10:51:37.302Z,149971.13
2023-02-08T10:52:40.176Z,150066.19
2023-02-08T10:53:43.057Z,150175.81
2023-02-08T10:54:45.578Z,150345.28
2023-02-08T10:55:49.185Z,150224.63
2023-02-08T10:57:03.231Z,150133.19
2023-02-08T10:58:07.300Z,150201.47
2023-02-08T10:59:20.388Z,150181.91
2023-02-08T11:00:28.426Z,150390.44
2023-02-08T11:01:31.448Z,150458.72
2023-02-08T11:02:39.712Z,150356.28
2023-02-08T11:04:02.194Z,150344.06
2023-02-08T11:05:12.466Z,150244.13
2023-02-08T11:06:28.178Z,150095.44
2023-02-08T11:07:34.039Z,149968.72
2023-02-08T11:08:56.144Z,150049.13
2023-02-08T11:10:17.022Z,150051.56
2023-02-08T11:11:19.429Z,150141.72
2023-02-08T11:12:23.388Z,150096.66
2023-02-08T11:13:51.951Z,149993.13
2023-02-08T11:14:54.709Z,149929.75
2023-02-08T11:16:00.518Z,149962.63
2023-02-08T11:17:03.350Z,149885.88
2023-02-08T11:18:07.446Z,150010.16
2023-02-08T11:19:22.203Z,149754.34
2023-02-08T11:20:36.865Z,149979.66
2023-02-08T11:21:41.090Z,149932.19
2023-02-08T11:22:45.958Z,150000.44
2023-02-08T11:23:52.440Z,149998.00
2023-02-08T11:25:07.685Z,149877.38
2023-02-08T11:26:24.358Z,149985.72
2023-02-08T11:27:26.761Z,149934.63
2023-02-08T11:28:31.207Z,150058.91
2023-02-08T11:29:33.733Z,150157.56
2023-02-08T11:30:36.287Z,150067.41
2023-02-08T11:31:40.760Z,149978.44
2023-02-08T11:32:45.493Z,149885.88
2023-02-08T11:34:01.691Z,149896.88
2023-02-08T11:35:22.178Z,149675.25
2023-02-08T11:36:24.985Z,149737.34
2023-02-08T11:37:28.858Z,149834.78
2023-02-08T11:38:34.819Z,149803.13
2023-02-08T11:39:42.983Z,149829.91
2023-02-08T11:40:46.464Z,149910.25
2023-02-08T11:41:51.284Z,149900.53
2023-02-08T11:42:54.268Z,149949.22
2023-02-08T11:44:04.960Z,149871.28
2023-02-08T11:45:07.708Z,150036.97
2023-02-08T11:46:11.480Z,150084.44
2023-02-08T11:47:18.904Z,150155.16
2023-02-08T11:49:00.877Z,150077.16
2023-02-08T11:50:09.182Z,150146.59
2023-02-08T11:51:23.802Z,150124.69
2023-02-08T11:52:36.759Z,150373.31
2023-02-08T11:53:41.804Z,150346.50
2023-02-08T11:54:44.926Z,150389.22
2023-02-08T11:56:07.249Z,150106.38
2023-02-08T11:57:20.336Z,150156.34
2023-02-08T11:58:26.110Z,149961.41
2023-02-08T11:59:30.293Z,150046.69
2023-02-08T12:00:35.943Z,150088.13
2023-02-08T12:01:41.098Z,150163.66
2023-02-08T12:02:46.619Z,150214.84
2023-02-08T12:03:51.492Z,150123.47
2023-02-08T12:04:54.665Z,149984.53
2023-02-08T12:06:03.551Z,150136.84
2023-02-08T12:07:25.155Z,150136.84
2023-02-08T12:08:31.032Z,150012.59
2023-02-08T12:09:55.156Z,149946.78
2023-02-08T12:11:24.674Z,149864.00
2023-02-08T12:12:36.815Z,149926.09
2023-02-08T12:13:58.285Z,149786.06
2023-02-08T12:15:22.706Z,149649.69
2023-02-08T12:16:50.001Z,149730.03
2023-02-08T12:18:14.493Z,149758.00
2023-02-08T12:19:44.739Z,149803.13
2023-02-08T12:20:51.493Z,149730.03
2023-02-08T12:22:07.991Z,149676.47
2023-02-08T12:23:33.933Z,149872.50
2023-02-08T12:24:49.897Z,149929.75
2023-02-08T12:26:14.151Z,149937.03
2023-02-08T12:27:38.384Z,149922.41
2023-02-08T12:29:45.689Z,150066.19
2023-02-08T12:30:58.234Z,150117.34
2023-02-08T12:32:21.944Z,150219.78
2023-02-08T12:33:37.930Z,150259.97
2023-02-08T12:35:37.398Z,150336.75
2023-02-08T12:36:48.643Z,150223.41
2023-02-08T12:38:37.433Z,150380.66
2023-02-08T12:40:18.412Z,150239.25
2023-02-08T12:41:23.687Z,150082.00
2023-02-08T12:42:26.327Z,150121.03
2023-02-08T12:44:07.750Z,150164.88
2023-02-08T12:45:19.252Z,150122.25
2023-02-08T12:46:33.776Z,150195.38
2023-02-08T12:47:39.057Z,150141.72
2023-02-08T12:49:00.177Z,150212.44
2023-02-08T12:50:09.374Z,150049.13
2023-02-08T12:51:36.180Z,149978.44
2023-02-08T12:52:53.173Z,150027.22
2023-02-08T12:54:04.498Z,150105.16
2023-02-08T12:55:19.143Z,150144.16
2023-02-08T12:56:30.661Z,150060.13
2023-02-08T12:57:33.509Z,150029.66
2023-02-08T12:58:46.255Z,150125.91
2023-02-08T12:59:56.123Z,150225.84
2023-02-08T13:01:08.444Z,150005.28
2023-02-08T13:02:21.579Z,150054.00
2023-02-08T13:03:43.148Z,150079.56
2023-02-08T13:04:49.873Z,150011.38
2023-02-08T13:06:02.108Z,150066.19
2023-02-08T13:07:26.106Z,150084.44
2023-02-08T13:08:50.104Z,150127.13
2023-02-08T13:10:02.886Z,150082.00
2023-02-08T13:11:19.814Z,149993.13